Time;durP1;ratioP1;P1;durP2;ratioP2;P2;SDS_P1;SDS_P2;PMS_P1;PMS_P2;Temp;Humidity;BMP_temperature;BMP_pressure;BME280_temperature;BME280_humidity;BME280_pressure;Samples;Min_cycle;Max_cycle;Signal;HPM_P1;HPM_P2
2023/01/13 00:02:09;;;;;;;34.73;17.37;;;6.00;99.90;;;;;;5070599;28;20032;-62
2023/01/13 00:04:35;;;;;;;28.10;13.63;;;5.90;99.90;;;;;;5073907;28;20361;-66
2023/01/13 00:07:00;;;;;;;35.07;16.07;;;6.00;99.90;;;;;;5063730;28;20044;-65
2023/01/13 00:09:26;;;;;;;26.87;12.43;;;6.10;99.90;;;;;;5069707;28;20570;-63
2023/01/13 00:11:51;;;;;;;18.50;8.97;;;6.30;99.90;;;;;;5066223;28;20159;-62
2023/01/13 00:14:17;;;;;;;20.20;10.10;;;6.50;99.90;;;;;;5067926;28;20023;-66
2023/01/13 00:16:43;;;;;;;21.83;10.57;;;6.60;99.90;;;;;;5071238;28;20033;-68
2023/01/13 00:19:08;;;;;;;18.30;9.13;;;6.60;99.90;;;;;;5070051;28;20024;-65
2023/01/13 00:21:35;;;;;;;24.70;9.53;;;6.70;99.90;;;;;;5067509;28;20439;-69
2023/01/13 00:24:01;;;;;;;19.33;10.05;;;6.80;99.90;;;;;;5071707;28;20808;-69
2023/01/13 00:26:32;;;;;;;22.57;8.53;;;6.90;99.90;;;;;;5067241;28;20120;-65
2023/01/13 00:28:59;;;;;;;19.38;9.32;;;6.90;99.90;;;;;;5070225;28;20107;-63
2023/01/13 00:31:26;;;;;;;20.17;8.57;;;6.90;99.90;;;;;;5069768;28;20563;-68
2023/01/13 00:33:52;;;;;;;18.08;8.38;;;6.90;99.90;;;;;;5072340;28;20080;-62
2023/01/13 00:36:19;;;;;;;20.25;7.35;;;6.90;99.90;;;;;;5070733;28;20060;-63
2023/01/13 00:38:46;;;;;;;15.68;6.78;;;6.90;99.90;;;;;;5071247;28;20071;-67
2023/01/13 00:41:14;;;;;;;16.60;6.63;;;7.00;99.90;;;;;;5064828;28;20032;-63
2023/01/13 00:43:41;;;;;;;20.83;6.70;;;7.00;99.90;;;;;;5069865;28;20032;-62
2023/01/13 00:46:08;;;;;;;13.00;6.13;;;7.00;99.90;;;;;;5071334;28;20035;-62
2023/01/13 00:48:34;;;;;;;14.38;6.22;;;7.10;99.90;;;;;;5077573;28;20496;-62
2023/01/13 00:51:20;;;;;;;14.85;6.90;;;7.00;99.90;;;;;;5071150;28;20059;-62
2023/01/13 00:53:48;;;;;;;16.27;7.53;;;6.90;99.90;;;;;;5075649;28;20036;-63
2023/01/13 00:56:16;;;;;;;12.55;5.85;;;6.90;99.90;;;;;;5073797;28;20100;-66
2023/01/13 00:58:44;;;;;;;18.48;8.68;;;7.10;99.90;;;;;;5066786;28;20122;-63
2023/01/13 01:01:13;;;;;;;14.43;6.40;;;6.90;99.90;;;;;;5072567;28;20024;-66
2023/01/13 01:03:39;;;;;;;21.98;9.75;;;7.00;99.90;;;;;;5074277;28;20024;-72
2023/01/13 01:06:09;;;;;;;11.27;5.07;;;6.80;99.90;;;;;;5076161;28;20025;-72
2023/01/13 01:08:35;;;;;;;13.23;4.85;;;7.30;99.90;;;;;;5071151;28;20464;-66
2023/01/13 01:11:06;;;;;;;13.13;4.53;;;7.30;99.90;;;;;;5069409;28;20540;-69
2023/01/13 01:13:33;;;;;;;11.43;4.22;;;7.30;99.90;;;;;;5075836;28;20047;-64
2023/01/13 01:15:58;;;;;;;12.05;4.75;;;7.40;99.40;;;;;;5067170;28;20027;-64
2023/01/13 01:18:24;;;;;;;6.57;3.37;;;7.40;99.90;;;;;;5071982;28;20029;-69
2023/01/13 01:20:50;;;;;;;14.65;3.90;;;7.40;99.90;;;;;;5067853;28;20046;-66
2023/01/13 01:23:16;;;;;;;7.18;3.35;;;7.40;99.80;;;;;;5076094;28;20032;-69
2023/01/13 01:25:41;;;;;;;13.77;3.50;;;7.30;99.90;;;;;;5071419;28;20116;-70
2023/01/13 01:28:07;;;;;;;19.73;9.47;;;7.50;99.70;;;;;;5069806;28;20032;-71
2023/01/13 01:30:33;;;;;;;19.10;7.70;;;7.00;99.90;;;;;;5067684;28;20029;-70
2023/01/13 01:32:58;;;;;;;12.73;7.60;;;6.90;99.90;;;;;;5075873;28;20476;-65
2023/01/13 01:35:24;;;;;;;12.97;4.57;;;6.80;99.90;;;;;;5068976;28;20025;-69
2023/01/13 01:37:50;;;;;;;18.10;3.90;;;7.10;99.90;;;;;;5074742;28;20496;-69
2023/01/13 01:40:15;;;;;;;7.22;2.88;;;7.40;99.50;;;;;;5074135;28;20025;-64
2023/01/13 01:45:29;;;;;;;7.13;2.60;;;8.40;96.00;;;;;;5071290;28;20044;-65
2023/01/13 01:48:05;;;;;;;6.32;2.55;;;8.30;96.50;;;;;;5075942;28;20032;-63
2023/01/13 01:50:32;;;;;;;7.43;2.60;;;8.30;95.80;;;;;;5070151;28;20034;-69
2023/01/13 01:53:14;;;;;;;10.35;3.00;;;8.30;96.10;;;;;;5068056;28;20089;-66
2023/01/13 01:55:41;;;;;;;9.68;2.88;;;8.40;95.90;;;;;;5069841;28;20061;-69
2023/01/13 01:58:19;;;;;;;7.85;2.58;;;8.00;97.20;;;;;;5076366;28;20078;-69
2023/01/13 02:00:45;;;;;;;14.23;3.25;;;7.90;97.80;;;;;;5071724;28;20035;-71
2023/01/13 02:03:12;;;;;;;7.60;2.67;;;7.70;98.30;;;;;;5076656;28;20058;-71
2023/01/13 02:05:38;;;;;;;6.10;3.10;;;7.60;99.90;;;;;;5078298;28;20047;-71
2023/01/13 02:08:05;;;;;;;9.35;3.45;;;7.40;99.90;;;;;;5071195;28;20048;-71
2023/01/13 02:10:31;;;;;;;16.15;6.95;;;7.30;99.90;;;;;;5069794;28;20056;-66
2023/01/13 02:13:01;;;;;;;13.25;7.95;;;7.10;99.90;;;;;;5067136;28;20119;-66
2023/01/13 02:15:42;;;;;;;22.90;8.60;;;7.10;99.90;;;;;;5071253;28;20017;-71
2023/01/13 02:18:19;;;;;;;14.90;6.30;;;7.00;99.90;;;;;;5072413;28;20865;-67
2023/01/13 02:21:14;;;;;;;14.23;3.63;;;7.00;99.90;;;;;;5068447;28;20055;-65
2023/01/13 02:27:22;;;;;;;10.80;5.47;;;7.20;99.90;;;;;;5059300;28;20052;-66
2023/01/13 02:33:12;;;;;;;13.20;3.00;;;7.20;99.90;;;;;;5072555;28;20427;-69
2023/01/13 02:36:07;;;;;;;14.43;3.72;;;7.80;99.80;;;;;;5073141;28;20496;-71
2023/01/13 02:38:37;;;;;;;7.43;2.75;;;7.60;99.90;;;;;;5066193;28;20032;-69
2023/01/13 02:44:09;;;;;;;4.40;2.25;;;7.70;99.90;;;;;;5068878;28;20148;-68
2023/01/13 02:46:56;;;;;;;46.60;13.98;;;7.80;98.50;;;;;;5070704;28;20029;-63
2023/01/13 02:49:45;;;;;;;22.83;12.57;;;7.40;99.90;;;;;;5069936;28;20404;-63
2023/01/13 02:52:28;;;;;;;24.52;12.73;;;7.10;99.90;;;;;;5071633;28;20032;-63
2023/01/13 02:54:59;;;;;;;25.95;14.32;;;7.00;99.90;;;;;;5069028;28;20037;-64
2023/01/13 02:57:27;;;;;;;29.00;15.45;;;6.80;99.90;;;;;;5072584;28;20024;-63
2023/01/13 02:59:54;;;;;;;27.48;14.30;;;6.70;99.90;;;;;;5071651;28;20126;-63
2023/01/13 03:02:22;;;;;;;24.35;15.15;;;6.70;99.90;;;;;;5068550;28;20033;-63
2023/01/13 03:04:52;;;;;;;31.98;15.65;;;6.50;99.90;;;;;;5052424;28;20032;-65
2023/01/13 03:07:26;;;;;;;28.05;16.33;;;6.50;99.90;;;;;;5070775;28;20058;-66
2023/01/13 03:10:09;;;;;;;25.10;11.52;;;6.40;99.90;;;;;;5069870;28;20033;-65
2023/01/13 03:13:05;;;;;;;27.40;13.50;;;6.40;99.90;;;;;;5067042;28;20526;-70
2023/01/13 03:15:49;;;;;;;27.67;12.52;;;6.50;99.90;;;;;;5068729;28;20024;-68
2023/01/13 03:18:39;;;;;;;14.90;8.45;;;6.50;99.90;;;;;;5068394;28;20074;-66
2023/01/13 03:21:25;;;;;;;21.08;8.73;;;6.80;99.90;;;;;;5065814;28;20043;-66
2023/01/13 03:23:57;;;;;;;16.42;6.55;;;6.80;99.90;;;;;;5065201;28;20475;-66
2023/01/13 03:26:57;;;;;;;18.45;8.57;;;6.90;99.90;;;;;;5079849;28;20095;-63
2023/01/13 03:29:36;;;;;;;14.52;5.95;;;6.90;99.90;;;;;;5069940;28;20091;-67
2023/01/13 03:32:10;;;;;;;9.65;4.93;;;6.90;99.90;;;;;;5070552;28;20119;-69
2023/01/13 03:35:02;;;;;;;14.45;4.20;;;7.00;99.90;;;;;;5073793;28;20438;-64
2023/01/13 03:37:35;;;;;;;8.10;2.78;;;7.30;99.90;;;;;;5054544;28;20048;-63
2023/01/13 03:40:09;;;;;;;14.43;2.78;;;7.70;99.90;;;;;;5067179;28;20046;-65
2023/01/13 03:42:38;;;;;;;6.60;2.50;;;7.50;99.90;;;;;;5044279;28;20048;-64
2023/01/13 03:45:16;;;;;;;14.32;2.88;;;7.60;99.90;;;;;;5062674;28;20043;-68
2023/01/13 03:47:56;;;;;;;19.35;4.18;;;7.60;99.90;;;;;;5068475;28;20415;-67
2023/01/13 03:50:27;;;;;;;10.68;3.60;;;7.80;99.90;;;;;;5044773;28;20066;-63
2023/01/13 03:53:01;;;;;;;9.13;2.78;;;7.70;99.90;;;;;;5072978;28;20043;-66
2023/01/13 03:55:33;;;;;;;6.78;2.47;;;7.70;99.90;;;;;;5082476;28;20094;-65
2023/01/13 03:58:09;;;;;;;16.55;2.85;;;7.70;99.90;;;;;;5072766;28;20024;-64
2023/01/13 04:00:46;;;;;;;13.52;3.33;;;7.70;99.90;;;;;;5070838;28;20034;-63
2023/01/13 04:03:42;;;;;;;12.70;3.97;;;7.70;99.90;;;;;;5069298;28;20032;-66
2023/01/13 04:06:23;;;;;;;15.65;3.42;;;7.60;99.90;;;;;;5073241;28;20054;-67
2023/01/13 04:08:55;;;;;;;12.25;3.13;;;7.60;99.90;;;;;;5066290;28;20060;-67
2023/01/13 04:11:50;;;;;;;12.07;3.67;;;7.50;99.90;;;;;;5067486;28;20036;-65
2023/01/13 04:14:19;;;;;;;13.32;3.22;;;7.40;99.90;;;;;;5059512;28;20041;-63
2023/01/13 04:16:46;;;;;;;18.13;3.17;;;7.30;99.90;;;;;;5074198;28;20115;-66
2023/01/13 04:19:11;;;;;;;9.70;3.58;;;7.30;99.90;;;;;;5087454;28;20036;-66
2023/01/13 04:21:37;;;;;;;12.03;3.27;;;7.30;99.90;;;;;;5073135;28;20028;-65
2023/01/13 04:24:02;;;;;;;8.03;3.20;;;7.40;99.90;;;;;;5074323;28;20025;-66
2023/01/13 04:26:28;;;;;;;14.27;3.20;;;7.30;99.90;;;;;;5075946;28;20032;-64
2023/01/13 04:28:54;;;;;;;7.13;2.53;;;7.30;99.90;;;;;;5075887;28;20040;-65
2023/01/13 04:31:20;;;;;;;9.55;3.05;;;7.30;99.90;;;;;;5074746;28;20024;-66
2023/01/13 04:33:45;;;;;;;14.98;3.90;;;7.30;99.90;;;;;;5076047;28;20055;-68
2023/01/13 04:36:11;;;;;;;15.37;2.93;;;7.30;99.90;;;;;;5064901;28;20099;-64
2023/01/13 04:38:37;;;;;;;19.00;3.33;;;7.30;99.90;;;;;;5070562;28;20326;-64
2023/01/13 04:41:02;;;;;;;12.20;3.57;;;7.40;99.90;;;;;;5077281;28;20546;-63
2023/01/13 04:43:28;;;;;;;11.30;3.20;;;7.30;99.90;;;;;;5069716;28;20055;-63
2023/01/13 04:45:53;;;;;;;15.80;3.20;;;7.40;99.90;;;;;;5068016;28;20035;-64
2023/01/13 04:48:19;;;;;;;8.00;2.93;;;7.50;99.90;;;;;;5072876;28;20079;-64
2023/01/13 04:50:44;;;;;;;7.97;3.00;;;7.50;99.90;;;;;;5070684;28;20103;-65
2023/01/13 04:53:10;;;;;;;11.17;3.30;;;7.60;99.90;;;;;;5073361;28;20041;-63
2023/01/13 04:55:36;;;;;;;12.63;3.63;;;7.60;99.90;;;;;;5071612;28;20035;-65
2023/01/13 04:58:06;;;;;;;16.50;3.40;;;7.60;99.90;;;;;;5070846;28;20035;-63
2023/01/13 05:00:32;;;;;;;9.43;3.00;;;7.70;99.90;;;;;;5070447;28;20028;-65
2023/01/13 05:02:58;;;;;;;8.13;2.92;;;7.60;99.90;;;;;;5068965;28;20024;-64
2023/01/13 05:05:25;;;;;;;11.50;3.35;;;7.70;99.90;;;;;;5067579;28;20032;-63
2023/01/13 05:07:51;;;;;;;7.93;3.10;;;7.70;99.90;;;;;;5075343;28;20024;-63
2023/01/13 05:10:16;;;;;;;7.95;3.20;;;7.70;99.90;;;;;;5073331;28;20044;-65
2023/01/13 05:18:11;;;;;;;11.48;2.97;;;7.70;99.90;;;;;;5073013;28;20090;-65
2023/01/13 05:20:37;;;;;;;12.57;4.22;;;7.80;99.90;;;;;;5060380;28;20438;-64
2023/01/13 05:25:47;;;;;;;14.68;3.53;;;7.70;99.90;;;;;;5069550;28;20407;-65
2023/01/13 05:28:13;;;;;;;9.98;3.25;;;7.80;99.90;;;;;;5073427;28;20136;-65
2023/01/13 05:30:41;;;;;;;10.05;3.05;;;7.80;99.90;;;;;;5070044;28;20086;-64
2023/01/13 05:33:09;;;;;;;8.82;3.38;;;7.80;99.90;;;;;;5068957;28;20079;-65
2023/01/13 05:35:37;;;;;;;8.98;2.75;;;7.70;99.90;;;;;;5074758;28;20462;-63
2023/01/13 05:38:03;;;;;;;8.60;3.40;;;7.80;99.90;;;;;;5071835;28;20058;-63
2023/01/13 05:43:24;;;;;;;9.48;3.33;;;7.80;99.90;;;;;;5069265;28;20412;-64
2023/01/13 05:45:57;;;;;;;19.77;3.67;;;7.80;99.90;;;;;;5070023;28;20060;-66
2023/01/13 05:48:32;;;;;;;12.00;3.05;;;7.80;99.90;;;;;;5072259;28;20070;-65
2023/01/13 05:50:58;;;;;;;12.45;3.60;;;7.80;99.90;;;;;;5070147;28;20488;-66
2023/01/13 05:53:24;;;;;;;11.65;3.83;;;7.80;99.90;;;;;;5075841;28;20072;-65
2023/01/13 05:55:51;;;;;;;9.05;3.25;;;7.80;99.90;;;;;;5072371;28;20024;-63
2023/01/13 05:58:17;;;;;;;;;;;7.70;99.90;;;;;;5070602;28;20029;-64
2023/01/13 06:00:44;;;;;;;7.55;3.25;;;7.70;99.90;;;;;;5074524;28;20407;-66
2023/01/13 06:03:10;;;;;;;;;;;7.70;99.90;;;;;;5073363;28;20095;-67
2023/01/13 06:05:37;;;;;;;8.57;3.78;;;7.70;99.90;;;;;;5070460;28;19909;-70
2023/01/13 06:08:04;;;;;;;12.55;4.10;;;7.70;99.90;;;;;;5072326;28;20032;-68
2023/01/13 06:10:30;;;;;;;8.18;3.58;;;7.70;99.90;;;;;;5067337;28;20020;-63
2023/01/13 06:12:56;;;;;;;12.02;4.07;;;7.70;99.90;;;;;;5069720;28;20048;-69
2023/01/13 06:15:22;;;;;;;9.93;3.60;;;7.70;99.90;;;;;;5071745;28;20147;-65
2023/01/13 06:17:48;;;;;;;10.60;3.50;;;7.80;99.90;;;;;;5071138;28;20036;-70
2023/01/13 06:20:15;;;;;;;13.10;3.80;;;7.80;99.90;;;;;;5079551;28;20028;-66
2023/01/13 06:22:44;;;;;;;10.07;3.50;;;7.80;99.90;;;;;;5077696;28;20021;-66
2023/01/13 06:25:45;;;;;;;11.88;3.95;;;7.80;99.90;;;;;;5079470;28;20042;-65
2023/01/13 06:28:10;;;;;;;20.65;4.82;;;7.80;99.90;;;;;;5031000;28;20037;-67
2023/01/13 06:30:48;;;;;;;10.87;3.70;;;7.80;99.90;;;;;;5068915;28;20025;-64
2023/01/13 06:33:17;;;;;;;13.52;3.97;;;7.80;99.90;;;;;;5067865;28;20491;-67
2023/01/13 06:35:47;;;;;;;17.92;5.22;;;7.90;99.90;;;;;;5072730;28;20052;-66
2023/01/13 06:38:16;;;;;;;7.80;3.75;;;7.90;99.90;;;;;;5067788;28;20032;-64
2023/01/13 06:40:42;;;;;;;9.82;3.67;;;7.90;99.90;;;;;;5076040;28;20027;-65
2023/01/13 06:43:14;;;;;;;12.57;3.60;;;7.90;99.90;;;;;;5068551;28;20064;-64
2023/01/13 06:45:42;;;;;;;7.88;3.25;;;7.90;99.90;;;;;;5066754;28;20502;-65
2023/01/13 06:48:07;;;;;;;13.75;3.40;;;7.90;99.90;;;;;;5072619;28;20087;-64
2023/01/13 06:50:33;;;;;;;12.77;3.97;;;7.90;99.90;;;;;;5064945;28;20649;-65
2023/01/13 06:52:59;;;;;;;7.97;3.73;;;7.90;99.90;;;;;;5073640;28;20063;-65
2023/01/13 06:55:24;;;;;;;18.37;4.43;;;8.00;99.90;;;;;;5071145;28;20027;-63
2023/01/13 06:57:52;;;;;;;12.53;3.07;;;8.00;99.90;;;;;;5068754;28;20032;-63
2023/01/13 07:00:19;;;;;;;7.40;3.33;;;8.00;99.90;;;;;;5052103;28;20028;-65
2023/01/13 07:02:45;;;;;;;10.18;3.70;;;8.00;99.90;;;;;;5073158;28;20411;-63
2023/01/13 07:05:11;;;;;;;8.40;3.23;;;8.00;99.90;;;;;;5069814;28;20308;-63
2023/01/13 07:07:37;;;;;;;7.82;2.75;;;8.00;99.90;;;;;;5074206;28;20028;-63
2023/01/13 07:10:03;;;;;;;10.52;3.13;;;8.00;99.90;;;;;;5067410;28;20036;-65
2023/01/13 07:12:29;;;;;;;11.35;2.80;;;8.00;99.90;;;;;;5068478;28;20036;-63
2023/01/13 07:17:39;;;;;;;10.10;3.28;;;8.00;99.90;;;;;;5071412;28;20039;-65
2023/01/13 07:20:05;;;;;;;7.77;2.93;;;7.90;99.90;;;;;;5068494;28;20028;-66
2023/01/13 07:22:30;;;;;;;12.63;3.78;;;7.90;99.90;;;;;;5067445;28;20396;-65
2023/01/13 07:24:56;;;;;;;9.30;3.63;;;8.00;99.90;;;;;;5068998;28;20031;-65
2023/01/13 07:27:22;;;;;;;16.70;5.88;;;8.00;99.90;;;;;;5065695;28;20032;-65
2023/01/13 07:29:48;;;;;;;11.63;4.73;;;7.90;99.90;;;;;;5065696;28;20049;-66
2023/01/13 07:32:14;;;;;;;14.63;4.63;;;8.00;99.90;;;;;;5062646;28;20757;-65
2023/01/13 07:34:40;;;;;;;21.27;7.25;;;8.10;99.90;;;;;;5066881;28;20108;-64
2023/01/13 07:37:05;;;;;;;16.37;5.63;;;8.10;99.90;;;;;;5076094;28;20107;-63
2023/01/13 07:39:31;;;;;;;15.40;4.33;;;8.10;99.90;;;;;;5068561;28;20031;-63
2023/01/13 07:44:41;;;;;;;12.07;6.60;;;7.90;99.90;;;;;;5071437;28;20074;-64
2023/01/13 07:47:09;;;;;;;16.90;7.80;;;7.70;99.90;;;;;;5064883;28;20028;-66
2023/01/13 07:49:34;;;;;;;16.10;7.50;;;7.70;99.90;;;;;;5069801;28;20073;-64
2023/01/13 07:52:00;;;;;;;22.37;8.60;;;7.50;99.90;;;;;;5062401;28;20032;-64
2023/01/13 07:54:26;;;;;;;16.33;9.10;;;7.50;99.90;;;;;;5069198;28;20094;-65
2023/01/13 07:56:52;;;;;;;19.97;10.33;;;7.60;99.90;;;;;;5068688;28;20785;-63
2023/01/13 07:59:17;;;;;;;17.93;9.20;;;7.60;99.90;;;;;;5068983;28;20028;-64
2023/01/13 08:01:43;;;;;;;18.60;8.97;;;7.60;99.90;;;;;;5064463;28;20071;-64
2023/01/13 08:04:08;;;;;;;15.53;8.47;;;7.60;99.90;;;;;;5069396;28;20026;-64
2023/01/13 08:06:35;;;;;;;14.40;7.97;;;7.50;99.90;;;;;;5064192;28;20526;-65
2023/01/13 08:09:01;;;;;;;17.58;7.82;;;7.60;99.90;;;;;;5062713;28;20081;-64
2023/01/13 08:11:26;;;;;;;19.63;8.13;;;7.60;99.90;;;;;;5062257;28;20024;-64
2023/01/13 08:13:56;;;;;;;14.03;7.47;;;7.60;99.90;;;;;;5067579;28;20025;-65
2023/01/13 08:16:22;;;;;;;16.73;8.63;;;7.50;99.90;;;;;;5062920;28;20496;-65
2023/01/13 08:18:48;;;;;;;22.65;8.32;;;7.50;99.90;;;;;;5067343;28;20054;-66
2023/01/13 08:21:14;;;;;;;14.53;7.70;;;7.40;99.90;;;;;;5083688;28;20496;-65
2023/01/13 08:23:41;;;;;;;16.38;8.75;;;7.50;99.90;;;;;;5077882;28;20024;-66
2023/01/13 08:26:10;;;;;;;19.08;9.45;;;7.50;99.90;;;;;;5065955;28;20044;-65
2023/01/13 08:28:36;;;;;;;18.42;8.10;;;7.50;99.90;;;;;;5062928;28;20020;-64
2023/01/13 08:31:04;;;;;;;18.13;8.50;;;7.50;99.90;;;;;;5065933;28;20020;-66
2023/01/13 08:33:30;;;;;;;20.30;8.60;;;7.60;99.90;;;;;;5069253;28;20123;-65
2023/01/13 08:35:56;;;;;;;13.93;8.43;;;7.60;99.90;;;;;;5070331;28;20025;-65
2023/01/13 08:38:22;;;;;;;17.73;7.83;;;7.60;99.90;;;;;;5069264;28;20074;-64
2023/01/13 08:40:48;;;;;;;17.48;10.02;;;7.60;99.90;;;;;;5070929;28;20254;-65
2023/01/13 08:43:13;;;;;;;17.83;8.53;;;7.70;99.90;;;;;;5068764;28;20381;-65
2023/01/13 08:45:39;;;;;;;16.87;8.17;;;7.70;99.90;;;;;;5068599;28;20494;-65
2023/01/13 08:48:05;;;;;;;23.57;9.90;;;8.00;99.90;;;;;;5071599;28;20732;-65
2023/01/13 08:50:30;;;;;;;24.50;11.43;;;8.10;99.90;;;;;;5072367;28;20042;-65
2023/01/13 08:52:56;;;;;;;27.90;12.02;;;8.10;99.90;;;;;;5069822;28;20403;-65
2023/01/13 08:55:22;;;;;;;25.20;10.07;;;8.10;99.90;;;;;;5073731;28;20091;-65
2023/01/13 08:57:48;;;;;;;21.38;10.13;;;8.20;99.90;;;;;;5064992;28;20050;-65
2023/01/13 09:00:15;;;;;;;21.77;10.47;;;8.30;99.90;;;;;;5066714;28;20629;-65
2023/01/13 09:02:41;;;;;;;19.35;10.05;;;8.40;99.90;;;;;;5064575;28;20781;-65
2023/01/13 09:05:08;;;;;;;23.43;12.10;;;8.50;99.90;;;;;;5070522;28;20028;-64
2023/01/13 09:07:35;;;;;;;20.98;10.20;;;8.60;99.90;;;;;;5070337;28;20369;-65
2023/01/13 09:10:01;;;;;;;28.02;8.32;;;8.60;99.90;;;;;;5068983;28;20085;-65
2023/01/13 09:15:11;;;;;;;10.77;3.22;;;9.00;99.90;;;;;;5066125;28;20165;-64
2023/01/13 09:17:37;;;;;;;5.60;2.17;;;9.20;99.90;;;;;;5068622;28;20098;-64
2023/01/13 09:20:04;;;;;;;11.10;2.30;;;10.30;99.90;;;;;;5072917;28;20063;-65
2023/01/13 09:22:29;;;;;;;14.80;5.82;;;10.20;99.90;;;;;;5068955;28;20039;-65
2023/01/13 09:24:55;;;;;;;17.07;4.97;;;10.90;99.90;;;;;;5071826;28;20017;-64
2023/01/13 09:27:21;;;;;;;16.63;6.67;;;12.00;99.20;;;;;;5067857;28;20036;-65
2023/01/13 09:29:48;;;;;;;12.57;6.43;;;12.50;98.00;;;;;;5068050;28;20021;-64
2023/01/13 09:32:14;;;;;;;17.15;5.75;;;11.60;98.60;;;;;;5068753;28;20040;-64
2023/01/13 09:37:24;;;;;;;8.95;3.15;;;10.60;99.90;;;;;;5074889;28;20043;-64
2023/01/13 09:39:49;;;;;;;11.27;4.45;;;10.40;99.90;;;;;;5068463;28;20032;-65
2023/01/13 09:45:31;;;;;;;;;;;10.50;99.90;;;;;;5065649;28;20059;-64
2023/01/13 09:48:01;;;;;;;17.33;7.68;;;10.10;99.90;;;;;;5072289;28;19912;-65
2023/01/13 09:50:52;;;;;;;17.05;6.53;;;9.70;99.90;;;;;;5070442;28;20028;-65
2023/01/13 09:53:23;;;;;;;14.60;7.80;;;9.60;99.90;;;;;;5060197;28;20040;-66
2023/01/13 09:55:48;;;;;;;14.93;7.18;;;9.80;99.90;;;;;;5067744;28;20066;-65
2023/01/13 09:58:17;;;;;;;10.47;4.63;;;9.50;99.90;;;;;;5066183;28;20040;-64
2023/01/13 10:00:50;;;;;;;14.82;7.65;;;9.70;99.90;;;;;;5068171;28;20017;-65
2023/01/13 10:03:28;;;;;;;13.48;6.78;;;9.60;99.90;;;;;;5070419;28;20020;-64
2023/01/13 10:06:03;;;;;;;26.58;8.95;;;9.60;99.90;;;;;;5070437;28;20024;-64
2023/01/13 10:08:33;;;;;;;15.35;7.05;;;9.50;99.90;;;;;;5077374;28;20036;-64
2023/01/13 10:13:12;;;;;;;14.80;7.30;;;9.50;99.90;;;;;;5061987;28;20029;-64
2023/01/13 10:13:54;;;;;;;15.45;7.15;;;9.50;99.90;;;;;;5074038;28;20622;-64
2023/01/13 10:16:41;;;;;;;14.98;7.03;;;9.60;99.90;;;;;;5074807;28;20395;-64
2023/01/13 10:19:17;;;;;;;21.08;8.25;;;9.80;99.90;;;;;;5067216;28;20713;-64
2023/01/13 10:22:04;;;;;;;18.85;8.52;;;9.90;99.90;;;;;;5078111;28;20020;-64
2023/01/13 10:24:48;;;;;;;13.85;7.35;;;10.20;99.90;;;;;;5074689;28;20024;-64
2023/01/13 10:27:30;;;;;;;20.23;8.35;;;10.40;99.90;;;;;;5070557;28;20214;-64
2023/01/13 10:29:56;;;;;;;17.70;6.43;;;10.70;99.90;;;;;;5071076;28;20051;-65
2023/01/13 10:32:21;;;;;;;12.40;6.63;;;10.80;99.90;;;;;;5077323;28;20084;-64
2023/01/13 10:34:50;;;;;;;14.23;7.73;;;10.60;99.90;;;;;;5069299;28;20016;-65
2023/01/13 10:37:27;;;;;;;26.23;7.75;;;10.60;99.90;;;;;;5067774;28;20040;-65
2023/01/13 10:39:53;;;;;;;;;;;10.80;99.90;;;;;;5073642;28;20032;-65
2023/01/13 10:42:21;;;;;;;15.63;6.22;;;11.10;99.90;;;;;;5073003;28;19943;-65
2023/01/13 10:44:51;;;;;;;12.70;5.22;;;11.10;99.90;;;;;;5068060;28;20063;-65
2023/01/13 10:47:19;;;;;;;11.35;5.15;;;11.00;99.90;;;;;;5074914;28;20024;-65
2023/01/13 10:50:04;;;;;;;13.32;5.80;;;11.00;99.90;;;;;;5068638;28;20031;-65
2023/01/13 10:52:32;;;;;;;11.52;5.15;;;11.00;99.90;;;;;;5069880;28;20039;-65
2023/01/13 10:54:58;;;;;;;10.10;5.00;;;10.90;99.90;;;;;;5068593;28;20423;-64
2023/01/13 10:57:26;;;;;;;10.87;5.40;;;11.00;99.90;;;;;;5066222;28;20044;-65
2023/01/13 10:59:52;;;;;;;8.98;4.93;;;11.30;99.90;;;;;;5068468;28;20031;-65
2023/01/13 11:02:30;;;;;;;11.02;6.25;;;11.50;99.90;;;;;;5066926;28;20028;-65
2023/01/13 11:04:56;;;;;;;13.60;5.65;;;11.60;99.90;;;;;;5071103;28;20052;-65
2023/01/13 11:07:31;;;;;;;;;;;11.50;99.90;;;;;;5069461;28;20048;-65
2023/01/13 11:10:08;;;;;;;10.38;5.60;;;11.70;99.90;;;;;;5072403;28;19911;-65
2023/01/13 11:12:51;;;;;;;12.77;4.28;;;12.00;99.90;;;;;;5066627;28;20145;-65
2023/01/13 11:15:22;;;;;;;10.88;4.60;;;12.50;99.90;;;;;;5040049;28;20024;-65
2023/01/13 11:17:59;;;;;;;57.38;25.45;;;12.80;99.20;;;;;;5069699;28;20149;-65
2023/01/13 11:20:32;;;;;;;20.42;8.02;;;13.10;99.90;;;;;;5068595;28;20043;-65
2023/01/13 11:23:02;;;;;;;17.20;7.80;;;12.80;99.90;;;;;;5065003;28;20043;-65
2023/01/13 11:25:43;;;;;;;25.67;11.50;;;12.50;99.90;;;;;;5070519;28;20025;-66
2023/01/13 11:28:32;;;;;;;25.17;9.63;;;12.50;99.90;;;;;;5063805;28;20029;-64
2023/01/13 11:31:03;;;;;;;45.67;17.92;;;12.80;99.90;;;;;;5072320;28;20023;-65
2023/01/13 11:34:00;;;;;;;34.38;14.23;;;12.80;99.30;;;;;;5068517;28;20089;-68
2023/01/13 11:36:58;;;;;;;17.58;8.60;;;12.70;99.90;;;;;;5061497;28;20020;-65
2023/01/13 11:39:52;;;;;;;15.10;9.55;;;12.30;99.90;;;;;;5064742;28;20051;-64
2023/01/13 11:42:42;;;;;;;19.40;12.13;;;12.30;99.90;;;;;;5070611;28;20479;-65
2023/01/13 11:45:15;;;;;;;33.50;16.33;;;12.00;99.90;;;;;;5061100;28;20024;-65
2023/01/13 11:47:45;;;;;;;15.30;6.70;;;11.70;99.90;;;;;;5067586;28;20408;-65
2023/01/13 11:50:40;;;;;;;13.00;5.22;;;11.70;99.90;;;;;;5068546;28;20408;-65
2023/01/13 11:53:23;;;;;;;9.40;5.38;;;11.80;99.90;;;;;;5058945;28;20052;-64
2023/01/13 11:56:05;;;;;;;8.00;4.15;;;11.90;99.90;;;;;;5067846;28;20074;-65
2023/01/13 11:59:08;;;;;;;7.60;4.63;;;12.00;99.90;;;;;;5073536;28;20111;-65
2023/01/13 12:02:01;;;;;;;7.03;3.85;;;12.10;99.90;;;;;;5067344;28;20021;-65
2023/01/13 12:04:44;;;;;;;11.85;5.40;;;12.40;99.90;;;;;;5068298;28;20017;-64
2023/01/13 12:07:23;;;;;;;11.35;5.18;;;12.40;99.90;;;;;;5068472;28;20033;-64
2023/01/13 12:10:15;;;;;;;9.90;4.72;;;12.50;99.90;;;;;;5066907;28;20074;-64
2023/01/13 12:12:52;;;;;;;9.20;5.82;;;12.60;99.90;;;;;;5061924;28;20055;-65
2023/01/13 12:15:21;;;;;;;10.93;4.97;;;12.80;99.90;;;;;;5061866;28;20029;-64
2023/01/13 12:17:55;;;;;;;6.68;3.83;;;12.80;99.90;;;;;;5070543;28;20115;-65
2023/01/13 12:20:26;;;;;;;7.75;4.07;;;13.00;99.90;;;;;;5067617;28;20025;-65
2023/01/13 12:22:55;;;;;;;15.70;4.38;;;13.20;99.90;;;;;;5064109;28;20111;-65
2023/01/13 12:25:45;;;;;;;8.45;4.40;;;13.10;99.90;;;;;;5068952;28;20153;-65
2023/01/13 12:28:20;;;;;;;9.88;4.00;;;13.20;99.90;;;;;;5064632;28;20122;-64
2023/01/13 12:30:46;;;;;;;8.02;3.83;;;13.50;99.90;;;;;;5071026;28;20025;-64
2023/01/13 12:33:27;;;;;;;9.87;4.07;;;13.70;99.40;;;;;;5066936;28;20043;-65
2023/01/13 12:36:12;;;;;;;6.03;3.70;;;13.80;99.60;;;;;;5072606;28;20028;-65
2023/01/13 12:38:58;;;;;;;8.63;3.20;;;13.30;98.80;;;;;;5061280;28;20055;-65
2023/01/13 12:41:32;;;;;;;8.77;3.60;;;13.20;99.30;;;;;;5060576;28;20108;-65
2023/01/13 12:44:17;;;;;;;8.82;3.58;;;13.20;99.90;;;;;;5076057;28;20252;-65
2023/01/13 12:46:51;;;;;;;7.10;3.75;;;13.00;99.90;;;;;;5071367;28;20104;-65
2023/01/13 12:49:23;;;;;;;9.02;4.10;;;13.10;99.90;;;;;;5067264;28;20033;-65
2023/01/13 12:51:55;;;;;;;5.00;2.55;;;13.00;99.20;;;;;;5073839;28;20024;-66
2023/01/13 12:54:29;;;;;;;5.30;2.55;;;13.00;99.40;;;;;;5067544;28;20036;-65
2023/01/13 12:56:56;;;;;;;8.77;3.30;;;13.20;98.90;;;;;;5070332;28;20932;-65
2023/01/13 12:59:22;;;;;;;5.90;2.90;;;13.30;97.70;;;;;;5069662;28;20017;-65
2023/01/13 13:02:09;;;;;;;8.63;3.23;;;13.40;97.60;;;;;;5070805;28;20028;-66
2023/01/13 13:04:50;;;;;;;6.05;2.83;;;13.30;97.30;;;;;;5076041;28;20036;-66
2023/01/13 13:07:22;;;;;;;3.78;2.22;;;13.50;97.60;;;;;;5073009;28;20033;-66
2023/01/13 13:09:56;;;;;;;5.78;2.22;;;13.50;97.10;;;;;;5070384;28;20089;-66
2023/01/13 13:15:33;;;;;;;5.40;2.15;;;13.20;96.40;;;;;;5067897;28;20098;-66
2023/01/13 13:18:00;;;;;;;4.00;2.53;;;13.00;97.00;;;;;;5072890;28;20111;-66
2023/01/13 13:20:52;;;;;;;3.42;1.90;;;12.90;98.00;;;;;;5070584;28;20020;-66
2023/01/13 13:23:43;;;;;;;6.50;2.95;;;12.80;96.40;;;;;;5064572;28;20086;-65
2023/01/13 13:26:20;;;;;;;7.80;2.72;;;12.60;97.80;;;;;;5072149;28;20027;-65
2023/01/13 13:29:07;;;;;;;3.83;2.25;;;12.50;98.50;;;;;;5070738;28;20162;-66
2023/01/13 13:32:02;;;;;;;5.50;3.10;;;12.40;98.20;;;;;;5068258;28;20020;-66
2023/01/13 13:34:55;;;;;;;7.47;3.20;;;12.20;99.10;;;;;;5077250;28;20055;-65
2023/01/13 13:46:45;;;;;;;6.47;2.15;;;11.90;99.90;;;;;;5069835;28;20040;-65
2023/01/13 13:49:12;;;;;;;4.38;1.98;;;12.00;99.90;;;;;;5065948;28;20416;-65
2023/01/13 13:51:48;;;;;;;4.75;2.20;;;11.90;99.90;;;;;;5073524;28;20116;-65
2023/01/13 13:54:17;;;;;;;5.65;3.00;;;11.90;99.90;;;;;;5067271;28;20122;-65
2023/01/13 13:56:44;;;;;;;6.20;3.30;;;11.90;99.90;;;;;;5073874;28;20032;-66
2023/01/13 13:59:13;;;;;;;6.28;2.50;;;11.90;99.90;;;;;;5069089;28;20088;-65
2023/01/13 14:01:41;;;;;;;9.98;2.67;;;11.70;99.90;;;;;;5075346;28;20028;-65